MMMY/MTY METAR and TAF weather

Enter ICAO airport designator
Station Type Date Time Source
MMMY METAR 2020/09/23 17:40 UTC NOAA

MMMY 231740Z 24004KT 10SM SKC 30/18 A2996 RMK SLP/// 5//// 9//


Station Type Date Time Source
MMMY Decoded METAR 2020/09/23 17:40 UTC NOAA

Monterrey / Gen Maria, Mexico (MMMY) 25-47N 100-06W
Sep 23, 2020 - 01:40 PM EDT / 2020.09.23 1740 UTC
Wind: from the WSW (240 degrees) at 5 MPH (4 KT):0
Visibility: 10 mile(s):0
Sky conditions: clear
Temperature: 86 F (30 C)
Dew Point: 64 F (18 C)
Relative Humidity: 48%
Pressure (altimeter): 29.96 in. Hg (1014 hPa)
ob: MMMY 231740Z 24004KT 10SM SKC 30/18 A2996 RMK SLP/// 5//// 9//
cycle: 17

Station Type Date Time Source
MMMY TAF 2020/09/23 18:54 UTC NOAA

TAF MMMY 231646Z 2318/2424 32005KT P6SM SKC TX32/2321Z TN20/2412Z
FM240600 03005KT P6SM SKC
FM241200 00000KT P6SM SKC
FM241800 12010KT P6SM SKC

Example: see airport list